sensor_id;sensor_type;location;lat;lon;timestamp;temperature;humidity
19060;DHT22;9663;48.996;8.334;2023-12-20T00:01:07;9.80;63.80
19060;DHT22;9663;48.996;8.334;2023-12-20T00:03:32;9.80;64.00
19060;DHT22;9663;48.996;8.334;2023-12-20T00:05:58;9.70;64.00
19060;DHT22;9663;48.996;8.334;2023-12-20T00:08:24;9.80;64.10
19060;DHT22;9663;48.996;8.334;2023-12-20T00:10:49;9.70;65.00
19060;DHT22;9663;48.996;8.334;2023-12-20T00:13:15;9.70;64.30
19060;DHT22;9663;48.996;8.334;2023-12-20T00:15:41;9.70;64.30
19060;DHT22;9663;48.996;8.334;2023-12-20T00:18:06;9.70;64.40
19060;DHT22;9663;48.996;8.334;2023-12-20T00:20:32;9.70;64.50
19060;DHT22;9663;48.996;8.334;2023-12-20T00:22:58;9.70;64.40
19060;DHT22;9663;48.996;8.334;2023-12-20T00:25:24;9.70;64.50
19060;DHT22;9663;48.996;8.334;2023-12-20T00:27:50;9.70;64.60
19060;DHT22;9663;48.996;8.334;2023-12-20T00:30:16;9.60;65.30
19060;DHT22;9663;48.996;8.334;2023-12-20T00:32:42;9.60;64.70
19060;DHT22;9663;48.996;8.334;2023-12-20T00:35:15;9.70;64.80
19060;DHT22;9663;48.996;8.334;2023-12-20T00:37:43;9.70;65.00
19060;DHT22;9663;48.996;8.334;2023-12-20T00:40:09;9.70;64.80
19060;DHT22;9663;48.996;8.334;2023-12-20T00:42:35;9.70;64.90
19060;DHT22;9663;48.996;8.334;2023-12-20T00:45:01;9.70;65.00
19060;DHT22;9663;48.996;8.334;2023-12-20T00:47:28;9.70;65.10
19060;DHT22;9663;48.996;8.334;2023-12-20T00:49:53;9.70;65.00
19060;DHT22;9663;48.996;8.334;2023-12-20T00:52:19;9.70;65.00
19060;DHT22;9663;48.996;8.334;2023-12-20T00:54:45;9.70;65.00
19060;DHT22;9663;48.996;8.334;2023-12-20T00:57:11;9.70;65.00
19060;DHT22;9663;48.996;8.334;2023-12-20T00:59:36;9.70;65.00
19060;DHT22;9663;48.996;8.334;2023-12-20T01:02:02;9.70;65.10
19060;DHT22;9663;48.996;8.334;2023-12-20T01:04:28;9.70;65.10
19060;DHT22;9663;48.996;8.334;2023-12-20T01:06:53;9.70;65.10
19060;DHT22;9663;48.996;8.334;2023-12-20T01:09:19;9.70;65.30
19060;DHT22;9663;48.996;8.334;2023-12-20T01:11:45;9.70;65.20
19060;DHT22;9663;48.996;8.334;2023-12-20T01:14:13;9.70;65.30
19060;DHT22;9663;48.996;8.334;2023-12-20T01:16:39;9.70;65.40
19060;DHT22;9663;48.996;8.334;2023-12-20T01:19:05;9.70;65.30
19060;DHT22;9663;48.996;8.334;2023-12-20T01:21:30;9.70;65.30
19060;DHT22;9663;48.996;8.334;2023-12-20T01:23:56;9.70;65.40
19060;DHT22;9663;48.996;8.334;2023-12-20T01:26:22;9.70;65.50
19060;DHT22;9663;48.996;8.334;2023-12-20T01:28:47;9.70;65.40
19060;DHT22;9663;48.996;8.334;2023-12-20T01:31:13;9.70;65.50
19060;DHT22;9663;48.996;8.334;2023-12-20T01:33:39;9.70;65.50
19060;DHT22;9663;48.996;8.334;2023-12-20T01:36:05;9.70;65.50
19060;DHT22;9663;48.996;8.334;2023-12-20T01:38:30;9.70;65.50
19060;DHT22;9663;48.996;8.334;2023-12-20T01:40:56;9.80;65.60
19060;DHT22;9663;48.996;8.334;2023-12-20T01:43:22;9.70;65.60
19060;DHT22;9663;48.996;8.334;2023-12-20T01:45:48;9.80;65.60
19060;DHT22;9663;48.996;8.334;2023-12-20T01:48:15;9.70;65.60
19060;DHT22;9663;48.996;8.334;2023-12-20T01:50:41;9.70;65.70
19060;DHT22;9663;48.996;8.334;2023-12-20T01:53:10;9.80;65.70
19060;DHT22;9663;48.996;8.334;2023-12-20T01:55:40;9.80;66.50
19060;DHT22;9663;48.996;8.334;2023-12-20T01:58:07;9.80;65.80
19060;DHT22;9663;48.996;8.334;2023-12-20T02:00:37;9.80;65.80
19060;DHT22;9663;48.996;8.334;2023-12-20T02:03:02;9.80;65.80
19060;DHT22;9663;48.996;8.334;2023-12-20T02:05:33;9.80;65.80
19060;DHT22;9663;48.996;8.334;2023-12-20T02:08:00;9.80;65.80
19060;DHT22;9663;48.996;8.334;2023-12-20T02:10:26;9.80;65.80
19060;DHT22;9663;48.996;8.334;2023-12-20T02:12:52;9.80;65.70
19060;DHT22;9663;48.996;8.334;2023-12-20T02:15:18;9.80;65.80
19060;DHT22;9663;48.996;8.334;2023-12-20T02:17:45;9.80;65.80
19060;DHT22;9663;48.996;8.334;2023-12-20T02:20:12;9.90;66.00
19060;DHT22;9663;48.996;8.334;2023-12-20T02:22:38;9.90;65.90
19060;DHT22;9663;48.996;8.334;2023-12-20T02:25:04;9.90;65.90
19060;DHT22;9663;48.996;8.334;2023-12-20T02:27:29;9.90;65.80
19060;DHT22;9663;48.996;8.334;2023-12-20T02:29:55;9.90;65.90
19060;DHT22;9663;48.996;8.334;2023-12-20T02:32:21;9.90;65.80
19060;DHT22;9663;48.996;8.334;2023-12-20T02:34:51;9.90;65.80
19060;DHT22;9663;48.996;8.334;2023-12-20T02:37:17;9.90;65.90
19060;DHT22;9663;48.996;8.334;2023-12-20T02:39:43;9.90;66.00
19060;DHT22;9663;48.996;8.334;2023-12-20T02:42:08;9.90;66.00
19060;DHT22;9663;48.996;8.334;2023-12-20T02:44:34;10.00;66.00
19060;DHT22;9663;48.996;8.334;2023-12-20T02:47:00;10.00;66.00
19060;DHT22;9663;48.996;8.334;2023-12-20T02:49:25;10.00;66.00
19060;DHT22;9663;48.996;8.334;2023-12-20T02:51:51;10.00;66.00
19060;DHT22;9663;48.996;8.334;2023-12-20T02:54:17;10.00;66.00
19060;DHT22;9663;48.996;8.334;2023-12-20T02:56:42;10.00;66.00
19060;DHT22;9663;48.996;8.334;2023-12-20T02:59:08;10.00;66.00
19060;DHT22;9663;48.996;8.334;2023-12-20T03:01:34;10.00;66.10
19060;DHT22;9663;48.996;8.334;2023-12-20T03:04:01;10.00;66.80
19060;DHT22;9663;48.996;8.334;2023-12-20T03:06:27;10.00;66.00
19060;DHT22;9663;48.996;8.334;2023-12-20T03:08:52;10.00;66.00
19060;DHT22;9663;48.996;8.334;2023-12-20T03:11:18;10.00;66.00
19060;DHT22;9663;48.996;8.334;2023-12-20T03:13:44;10.00;66.10
19060;DHT22;9663;48.996;8.334;2023-12-20T03:16:10;10.00;66.10
19060;DHT22;9663;48.996;8.334;2023-12-20T03:18:37;10.10;66.20
19060;DHT22;9663;48.996;8.334;2023-12-20T03:21:03;10.10;66.20
19060;DHT22;9663;48.996;8.334;2023-12-20T03:23:30;10.10;66.10
19060;DHT22;9663;48.996;8.334;2023-12-20T03:25:58;10.10;66.20
19060;DHT22;9663;48.996;8.334;2023-12-20T03:28:24;10.10;66.10
19060;DHT22;9663;48.996;8.334;2023-12-20T03:30:49;10.10;66.20
19060;DHT22;9663;48.996;8.334;2023-12-20T03:33:15;10.10;66.10
19060;DHT22;9663;48.996;8.334;2023-12-20T03:35:41;10.10;66.20
19060;DHT22;9663;48.996;8.334;2023-12-20T03:38:07;10.10;66.20
19060;DHT22;9663;48.996;8.334;2023-12-20T03:40:33;10.10;66.20
19060;DHT22;9663;48.996;8.334;2023-12-20T03:42:59;10.10;66.10
19060;DHT22;9663;48.996;8.334;2023-12-20T03:45:25;10.20;66.30
19060;DHT22;9663;48.996;8.334;2023-12-20T03:47:50;10.20;66.20
19060;DHT22;9663;48.996;8.334;2023-12-20T03:50:21;10.20;66.20
19060;DHT22;9663;48.996;8.334;2023-12-20T03:52:48;10.20;66.20
19060;DHT22;9663;48.996;8.334;2023-12-20T03:55:13;10.20;66.40
19060;DHT22;9663;48.996;8.334;2023-12-20T03:57:39;10.20;66.20
19060;DHT22;9663;48.996;8.334;2023-12-20T04:00:07;10.20;66.20
19060;DHT22;9663;48.996;8.334;2023-12-20T04:02:42;10.10;66.20
19060;DHT22;9663;48.996;8.334;2023-12-20T04:05:09;10.10;66.30
19060;DHT22;9663;48.996;8.334;2023-12-20T04:07:35;10.10;66.30
19060;DHT22;9663;48.996;8.334;2023-12-20T04:10:02;10.10;66.30
19060;DHT22;9663;48.996;8.334;2023-12-20T04:12:29;10.20;66.40
19060;DHT22;9663;48.996;8.334;2023-12-20T04:14:55;10.20;66.40
19060;DHT22;9663;48.996;8.334;2023-12-20T04:17:21;10.20;66.40
19060;DHT22;9663;48.996;8.334;2023-12-20T04:19:48;10.20;66.40
19060;DHT22;9663;48.996;8.334;2023-12-20T04:22:15;10.20;66.40
19060;DHT22;9663;48.996;8.334;2023-12-20T04:24:41;10.20;66.40
19060;DHT22;9663;48.996;8.334;2023-12-20T04:27:09;10.20;66.40
19060;DHT22;9663;48.996;8.334;2023-12-20T04:29:35;10.20;66.50
19060;DHT22;9663;48.996;8.334;2023-12-20T04:32:00;10.20;66.40
19060;DHT22;9663;48.996;8.334;2023-12-20T04:34:26;10.20;66.40
19060;DHT22;9663;48.996;8.334;2023-12-20T04:36:52;10.20;66.50
19060;DHT22;9663;48.996;8.334;2023-12-20T04:39:18;10.20;66.60
19060;DHT22;9663;48.996;8.334;2023-12-20T04:41:44;10.20;66.40
19060;DHT22;9663;48.996;8.334;2023-12-20T04:44:09;10.30;66.40
19060;DHT22;9663;48.996;8.334;2023-12-20T04:46:35;10.30;66.40
19060;DHT22;9663;48.996;8.334;2023-12-20T04:49:01;10.20;66.40
19060;DHT22;9663;48.996;8.334;2023-12-20T04:51:27;10.20;66.40
19060;DHT22;9663;48.996;8.334;2023-12-20T04:53:53;10.30;66.40
19060;DHT22;9663;48.996;8.334;2023-12-20T04:56:18;10.30;67.30
19060;DHT22;9663;48.996;8.334;2023-12-20T04:58:44;10.20;66.50
19060;DHT22;9663;48.996;8.334;2023-12-20T05:01:09;10.30;66.50
19060;DHT22;9663;48.996;8.334;2023-12-20T05:03:35;10.30;67.30
19060;DHT22;9663;48.996;8.334;2023-12-20T05:06:01;10.20;66.40
19060;DHT22;9663;48.996;8.334;2023-12-20T05:08:27;10.30;66.60
19060;DHT22;9663;48.996;8.334;2023-12-20T05:10:56;10.30;66.60
19060;DHT22;9663;48.996;8.334;2023-12-20T05:13:22;10.30;66.60
19060;DHT22;9663;48.996;8.334;2023-12-20T05:15:47;10.30;66.50
19060;DHT22;9663;48.996;8.334;2023-12-20T05:18:13;10.20;66.60
19060;DHT22;9663;48.996;8.334;2023-12-20T05:20:39;10.30;66.60
19060;DHT22;9663;48.996;8.334;2023-12-20T05:23:05;10.30;66.60
19060;DHT22;9663;48.996;8.334;2023-12-20T05:25:31;10.30;66.60
19060;DHT22;9663;48.996;8.334;2023-12-20T05:27:57;10.30;66.60
19060;DHT22;9663;48.996;8.334;2023-12-20T05:30:23;10.30;66.70
19060;DHT22;9663;48.996;8.334;2023-12-20T05:32:48;10.30;66.80
19060;DHT22;9663;48.996;8.334;2023-12-20T05:35:14;10.30;66.70
19060;DHT22;9663;48.996;8.334;2023-12-20T05:37:43;10.30;66.70
19060;DHT22;9663;48.996;8.334;2023-12-20T05:40:10;10.30;66.70
19060;DHT22;9663;48.996;8.334;2023-12-20T05:42:37;10.30;66.80
19060;DHT22;9663;48.996;8.334;2023-12-20T05:45:04;10.30;67.50
19060;DHT22;9663;48.996;8.334;2023-12-20T05:47:30;10.30;66.70
19060;DHT22;9663;48.996;8.334;2023-12-20T05:49:56;10.30;66.70
19060;DHT22;9663;48.996;8.334;2023-12-20T05:52:22;10.30;66.80
19060;DHT22;9663;48.996;8.334;2023-12-20T05:54:48;10.30;66.80
19060;DHT22;9663;48.996;8.334;2023-12-20T05:57:14;10.30;66.80
19060;DHT22;9663;48.996;8.334;2023-12-20T05:59:39;10.30;66.80
19060;DHT22;9663;48.996;8.334;2023-12-20T06:02:05;10.40;66.80
19060;DHT22;9663;48.996;8.334;2023-12-20T06:04:31;10.30;66.80
19060;DHT22;9663;48.996;8.334;2023-12-20T06:06:57;10.40;66.70
19060;DHT22;9663;48.996;8.334;2023-12-20T06:09:23;10.40;66.80
19060;DHT22;9663;48.996;8.334;2023-12-20T06:11:49;10.40;66.80
19060;DHT22;9663;48.996;8.334;2023-12-20T06:14:15;10.40;66.80
19060;DHT22;9663;48.996;8.334;2023-12-20T06:16:41;10.40;66.80
19060;DHT22;9663;48.996;8.334;2023-12-20T06:19:06;10.40;66.80
19060;DHT22;9663;48.996;8.334;2023-12-20T06:21:32;10.40;66.80
19060;DHT22;9663;48.996;8.334;2023-12-20T06:24:02;10.40;66.80
19060;DHT22;9663;48.996;8.334;2023-12-20T06:26:27;10.40;66.80
19060;DHT22;9663;48.996;8.334;2023-12-20T06:28:53;10.40;66.80
19060;DHT22;9663;48.996;8.334;2023-12-20T06:31:19;10.40;66.80
19060;DHT22;9663;48.996;8.334;2023-12-20T06:33:44;10.40;66.70
19060;DHT22;9663;48.996;8.334;2023-12-20T06:36:13;10.40;66.80
19060;DHT22;9663;48.996;8.334;2023-12-20T06:38:39;10.40;66.80
19060;DHT22;9663;48.996;8.334;2023-12-20T06:41:05;10.40;66.70
19060;DHT22;9663;48.996;8.334;2023-12-20T06:43:31;10.40;66.80
19060;DHT22;9663;48.996;8.334;2023-12-20T06:46:00;10.50;66.70
19060;DHT22;9663;48.996;8.334;2023-12-20T06:48:25;10.40;66.60
19060;DHT22;9663;48.996;8.334;2023-12-20T06:50:51;10.40;66.60
19060;DHT22;9663;48.996;8.334;2023-12-20T06:53:17;10.40;66.60
19060;DHT22;9663;48.996;8.334;2023-12-20T06:55:42;10.40;66.50
19060;DHT22;9663;48.996;8.334;2023-12-20T06:58:08;10.40;66.50
19060;DHT22;9663;48.996;8.334;2023-12-20T07:00:34;10.40;66.50
19060;DHT22;9663;48.996;8.334;2023-12-20T07:03:00;10.30;66.50
19060;DHT22;9663;48.996;8.334;2023-12-20T07:05:26;10.30;66.60
19060;DHT22;9663;48.996;8.334;2023-12-20T07:07:52;10.20;66.50
19060;DHT22;9663;48.996;8.334;2023-12-20T07:10:18;10.20;66.60
19060;DHT22;9663;48.996;8.334;2023-12-20T07:12:43;10.10;66.70
19060;DHT22;9663;48.996;8.334;2023-12-20T07:15:09;10.10;66.80
19060;DHT22;9663;48.996;8.334;2023-12-20T07:17:35;10.10;66.80
19060;DHT22;9663;48.996;8.334;2023-12-20T07:20:01;10.10;66.80
19060;DHT22;9663;48.996;8.334;2023-12-20T07:22:29;10.10;66.90
19060;DHT22;9663;48.996;8.334;2023-12-20T07:24:57;10.10;66.90
19060;DHT22;9663;48.996;8.334;2023-12-20T07:27:24;10.10;66.90
19060;DHT22;9663;48.996;8.334;2023-12-20T07:29:49;10.10;66.90
19060;DHT22;9663;48.996;8.334;2023-12-20T07:32:15;10.10;66.90
19060;DHT22;9663;48.996;8.334;2023-12-20T07:34:41;10.10;66.70
19060;DHT22;9663;48.996;8.334;2023-12-20T07:37:06;10.10;66.80
19060;DHT22;9663;48.996;8.334;2023-12-20T07:39:32;10.10;66.80
19060;DHT22;9663;48.996;8.334;2023-12-20T07:41:57;10.00;66.70
19060;DHT22;9663;48.996;8.334;2023-12-20T07:44:23;10.00;66.90
19060;DHT22;9663;48.996;8.334;2023-12-20T07:46:49;10.00;66.90
19060;DHT22;9663;48.996;8.334;2023-12-20T07:49:15;10.00;66.90
19060;DHT22;9663;48.996;8.334;2023-12-20T07:51:40;9.90;66.90
19060;DHT22;9663;48.996;8.334;2023-12-20T07:54:06;9.90;66.90
19060;DHT22;9663;48.996;8.334;2023-12-20T07:56:33;9.90;66.80
19060;DHT22;9663;48.996;8.334;2023-12-20T07:58:59;9.90;66.80
19060;DHT22;9663;48.996;8.334;2023-12-20T08:01:24;9.90;66.80
19060;DHT22;9663;48.996;8.334;2023-12-20T08:03:50;9.90;66.90
19060;DHT22;9663;48.996;8.334;2023-12-20T08:06:16;9.90;66.80
19060;DHT22;9663;48.996;8.334;2023-12-20T08:08:42;9.90;66.90
19060;DHT22;9663;48.996;8.334;2023-12-20T08:11:08;9.90;66.80
19060;DHT22;9663;48.996;8.334;2023-12-20T08:13:34;9.90;66.80
19060;DHT22;9663;48.996;8.334;2023-12-20T08:15:59;9.90;66.80
19060;DHT22;9663;48.996;8.334;2023-12-20T08:18:25;9.90;66.70
19060;DHT22;9663;48.996;8.334;2023-12-20T08:20:51;10.00;66.80
19060;DHT22;9663;48.996;8.334;2023-12-20T08:23:19;10.00;66.70
19060;DHT22;9663;48.996;8.334;2023-12-20T08:25:46;10.00;67.50
19060;DHT22;9663;48.996;8.334;2023-12-20T08:28:12;10.00;66.70
19060;DHT22;9663;48.996;8.334;2023-12-20T08:30:38;10.10;66.90
19060;DHT22;9663;48.996;8.334;2023-12-20T08:33:04;10.10;66.90
19060;DHT22;9663;48.996;8.334;2023-12-20T08:35:30;10.10;66.80
19060;DHT22;9663;48.996;8.334;2023-12-20T08:37:56;10.10;67.00
19060;DHT22;9663;48.996;8.334;2023-12-20T08:40:22;10.10;66.80
19060;DHT22;9663;48.996;8.334;2023-12-20T08:42:47;10.10;66.90
19060;DHT22;9663;48.996;8.334;2023-12-20T08:45:13;10.10;66.90
19060;DHT22;9663;48.996;8.334;2023-12-20T08:47:38;10.10;66.90
19060;DHT22;9663;48.996;8.334;2023-12-20T08:50:06;10.20;66.90
19060;DHT22;9663;48.996;8.334;2023-12-20T08:52:32;10.20;67.00
19060;DHT22;9663;48.996;8.334;2023-12-20T08:54:58;10.20;66.90
19060;DHT22;9663;48.996;8.334;2023-12-20T08:57:24;10.20;66.90
19060;DHT22;9663;48.996;8.334;2023-12-20T08:59:50;10.30;66.90
19060;DHT22;9663;48.996;8.334;2023-12-20T09:02:16;10.40;66.80
19060;DHT22;9663;48.996;8.334;2023-12-20T09:04:43;10.40;66.80
19060;DHT22;9663;48.996;8.334;2023-12-20T09:07:27;10.40;66.70
19060;DHT22;9663;48.996;8.334;2023-12-20T09:09:55;10.50;66.80
19060;DHT22;9663;48.996;8.334;2023-12-20T09:12:21;10.60;66.80
19060;DHT22;9663;48.996;8.334;2023-12-20T09:14:49;10.70;66.80
19060;DHT22;9663;48.996;8.334;2023-12-20T09:17:16;10.70;66.70
19060;DHT22;9663;48.996;8.334;2023-12-20T09:19:43;10.80;66.50
19060;DHT22;9663;48.996;8.334;2023-12-20T09:22:12;10.90;66.20
19060;DHT22;9663;48.996;8.334;2023-12-20T09:24:38;10.90;67.00
19060;DHT22;9663;48.996;8.334;2023-12-20T09:27:04;10.90;66.20
19060;DHT22;9663;48.996;8.334;2023-12-20T09:29:31;11.00;65.90
19060;DHT22;9663;48.996;8.334;2023-12-20T09:31:57;11.10;65.80
19060;DHT22;9663;48.996;8.334;2023-12-20T09:34:23;11.10;65.70
19060;DHT22;9663;48.996;8.334;2023-12-20T09:36:49;11.10;65.50
19060;DHT22;9663;48.996;8.334;2023-12-20T09:39:17;11.10;65.50
19060;DHT22;9663;48.996;8.334;2023-12-20T09:42:01;11.00;65.30
19060;DHT22;9663;48.996;8.334;2023-12-20T09:44:32;11.10;65.30
19060;DHT22;9663;48.996;8.334;2023-12-20T09:47:04;11.10;65.50
19060;DHT22;9663;48.996;8.334;2023-12-20T09:49:31;11.10;65.50
19060;DHT22;9663;48.996;8.334;2023-12-20T09:52:00;11.20;66.20
19060;DHT22;9663;48.996;8.334;2023-12-20T09:54:27;11.30;66.60
19060;DHT22;9663;48.996;8.334;2023-12-20T09:56:54;11.40;65.60
19060;DHT22;9663;48.996;8.334;2023-12-20T09:59:19;11.40;65.30
19060;DHT22;9663;48.996;8.334;2023-12-20T10:01:45;11.50;65.30
19060;DHT22;9663;48.996;8.334;2023-12-20T10:04:12;11.50;64.80
19060;DHT22;9663;48.996;8.334;2023-12-20T10:06:44;11.50;64.70
19060;DHT22;9663;48.996;8.334;2023-12-20T10:09:11;11.50;64.60
19060;DHT22;9663;48.996;8.334;2023-12-20T10:11:38;11.50;64.70
19060;DHT22;9663;48.996;8.334;2023-12-20T10:14:05;11.50;64.60
19060;DHT22;9663;48.996;8.334;2023-12-20T10:16:33;11.40;64.50
19060;DHT22;9663;48.996;8.334;2023-12-20T10:19:00;11.40;64.50
19060;DHT22;9663;48.996;8.334;2023-12-20T10:21:29;11.40;64.40
19060;DHT22;9663;48.996;8.334;2023-12-20T10:23:56;11.40;64.40
19060;DHT22;9663;48.996;8.334;2023-12-20T10:26:26;11.40;64.50
19060;DHT22;9663;48.996;8.334;2023-12-20T10:28:59;11.30;64.50
19060;DHT22;9663;48.996;8.334;2023-12-20T10:31:32;11.30;64.40
19060;DHT22;9663;48.996;8.334;2023-12-20T10:34:00;11.30;64.40
19060;DHT22;9663;48.996;8.334;2023-12-20T10:36:30;11.30;64.40
19060;DHT22;9663;48.996;8.334;2023-12-20T10:38:57;11.30;64.40
19060;DHT22;9663;48.996;8.334;2023-12-20T10:41:31;11.20;64.30
19060;DHT22;9663;48.996;8.334;2023-12-20T10:44:02;11.20;64.30
19060;DHT22;9663;48.996;8.334;2023-12-20T10:46:30;11.20;64.50
19060;DHT22;9663;48.996;8.334;2023-12-20T10:49:02;11.20;64.60
19060;DHT22;9663;48.996;8.334;2023-12-20T10:51:28;11.20;64.60
19060;DHT22;9663;48.996;8.334;2023-12-20T10:53:56;11.30;64.70
19060;DHT22;9663;48.996;8.334;2023-12-20T10:56:22;11.30;64.70
19060;DHT22;9663;48.996;8.334;2023-12-20T10:58:51;11.30;64.60
19060;DHT22;9663;48.996;8.334;2023-12-20T11:01:18;11.40;64.40
19060;DHT22;9663;48.996;8.334;2023-12-20T11:03:54;11.40;64.50
19060;DHT22;9663;48.996;8.334;2023-12-20T11:09:29;11.50;64.30
19060;DHT22;9663;48.996;8.334;2023-12-20T11:14:48;11.60;64.10
19060;DHT22;9663;48.996;8.334;2023-12-20T11:17:16;11.60;63.70
19060;DHT22;9663;48.996;8.334;2023-12-20T11:22:29;11.70;63.60
19060;DHT22;9663;48.996;8.334;2023-12-20T11:25:04;11.80;63.70
19060;DHT22;9663;48.996;8.334;2023-12-20T11:27:43;11.80;63.60
19060;DHT22;9663;48.996;8.334;2023-12-20T11:30:10;11.80;63.60
19060;DHT22;9663;48.996;8.334;2023-12-20T11:32:40;11.80;63.60
19060;DHT22;9663;48.996;8.334;2023-12-20T11:37:38;11.80;63.50
19060;DHT22;9663;48.996;8.334;2023-12-20T11:40:11;11.80;63.60
19060;DHT22;9663;48.996;8.334;2023-12-20T11:42:45;11.90;63.50
19060;DHT22;9663;48.996;8.334;2023-12-20T11:45:15;11.90;63.40
19060;DHT22;9663;48.996;8.334;2023-12-20T11:47:46;11.90;63.40
19060;DHT22;9663;48.996;8.334;2023-12-20T11:50:15;11.90;63.40
19060;DHT22;9663;48.996;8.334;2023-12-20T11:52:41;11.80;63.30
19060;DHT22;9663;48.996;8.334;2023-12-20T11:55:07;11.80;63.40
19060;DHT22;9663;48.996;8.334;2023-12-20T11:57:33;11.80;63.40
19060;DHT22;9663;48.996;8.334;2023-12-20T11:59:59;11.80;63.50
19060;DHT22;9663;48.996;8.334;2023-12-20T12:02:25;11.80;63.30
19060;DHT22;9663;48.996;8.334;2023-12-20T12:04:51;11.90;63.40
19060;DHT22;9663;48.996;8.334;2023-12-20T12:07:17;11.90;63.40
19060;DHT22;9663;48.996;8.334;2023-12-20T12:09:43;11.90;63.50
19060;DHT22;9663;48.996;8.334;2023-12-20T12:12:10;12.00;63.30
19060;DHT22;9663;48.996;8.334;2023-12-20T12:14:37;12.00;63.20
19060;DHT22;9663;48.996;8.334;2023-12-20T12:17:10;12.00;63.10
19060;DHT22;9663;48.996;8.334;2023-12-20T12:19:38;11.90;62.80
19060;DHT22;9663;48.996;8.334;2023-12-20T12:24:40;11.90;62.90
19060;DHT22;9663;48.996;8.334;2023-12-20T12:27:06;11.80;62.90
19060;DHT22;9663;48.996;8.334;2023-12-20T12:29:33;11.90;62.90
19060;DHT22;9663;48.996;8.334;2023-12-20T12:32:00;11.80;62.70
19060;DHT22;9663;48.996;8.334;2023-12-20T12:34:30;11.70;62.50
19060;DHT22;9663;48.996;8.334;2023-12-20T12:36:56;11.70;62.60
19060;DHT22;9663;48.996;8.334;2023-12-20T12:39:23;11.70;62.70
19060;DHT22;9663;48.996;8.334;2023-12-20T12:41:53;11.60;62.70
19060;DHT22;9663;48.996;8.334;2023-12-20T12:44:19;11.60;62.90
19060;DHT22;9663;48.996;8.334;2023-12-20T12:46:46;11.50;62.80
19060;DHT22;9663;48.996;8.334;2023-12-20T12:49:12;11.50;62.80
19060;DHT22;9663;48.996;8.334;2023-12-20T12:51:38;11.50;62.90
19060;DHT22;9663;48.996;8.334;2023-12-20T12:54:04;11.50;62.80
19060;DHT22;9663;48.996;8.334;2023-12-20T12:56:30;11.40;62.80
19060;DHT22;9663;48.996;8.334;2023-12-20T12:58:56;11.50;62.90
19060;DHT22;9663;48.996;8.334;2023-12-20T13:01:21;11.40;62.90
19060;DHT22;9663;48.996;8.334;2023-12-20T13:03:47;11.40;63.00
19060;DHT22;9663;48.996;8.334;2023-12-20T13:06:13;11.40;63.00
19060;DHT22;9663;48.996;8.334;2023-12-20T13:08:39;11.40;62.80
19060;DHT22;9663;48.996;8.334;2023-12-20T13:11:05;11.40;62.80
19060;DHT22;9663;48.996;8.334;2023-12-20T13:13:31;11.30;62.80
19060;DHT22;9663;48.996;8.334;2023-12-20T13:15:56;11.30;62.80
19060;DHT22;9663;48.996;8.334;2023-12-20T13:18:23;11.30;62.80
19060;DHT22;9663;48.996;8.334;2023-12-20T13:20:49;11.30;62.80
19060;DHT22;9663;48.996;8.334;2023-12-20T13:23:15;11.30;62.90
19060;DHT22;9663;48.996;8.334;2023-12-20T13:25:43;11.20;62.80
19060;DHT22;9663;48.996;8.334;2023-12-20T13:28:13;11.20;62.90
19060;DHT22;9663;48.996;8.334;2023-12-20T13:30:39;11.20;62.90
19060;DHT22;9663;48.996;8.334;2023-12-20T13:33:05;11.20;63.80
19060;DHT22;9663;48.996;8.334;2023-12-20T13:35:32;11.20;63.00
19060;DHT22;9663;48.996;8.334;2023-12-20T13:38:00;11.20;63.10
19060;DHT22;9663;48.996;8.334;2023-12-20T13:40:26;11.20;63.20
19060;DHT22;9663;48.996;8.334;2023-12-20T13:42:52;11.20;63.10
19060;DHT22;9663;48.996;8.334;2023-12-20T13:45:18;11.20;63.00
19060;DHT22;9663;48.996;8.334;2023-12-20T13:47:43;11.20;63.00
19060;DHT22;9663;48.996;8.334;2023-12-20T13:50:09;11.20;63.00
19060;DHT22;9663;48.996;8.334;2023-12-20T13:52:35;11.20;63.00
19060;DHT22;9663;48.996;8.334;2023-12-20T13:55:01;11.20;63.00
19060;DHT22;9663;48.996;8.334;2023-12-20T13:57:27;11.20;62.90
19060;DHT22;9663;48.996;8.334;2023-12-20T13:59:55;11.20;62.90
19060;DHT22;9663;48.996;8.334;2023-12-20T14:02:23;11.20;62.90
19060;DHT22;9663;48.996;8.334;2023-12-20T14:04:48;11.20;62.90
19060;DHT22;9663;48.996;8.334;2023-12-20T14:07:14;11.20;62.80
19060;DHT22;9663;48.996;8.334;2023-12-20T14:09:41;11.20;62.80
19060;DHT22;9663;48.996;8.334;2023-12-20T14:12:11;11.20;63.30
19060;DHT22;9663;48.996;8.334;2023-12-20T14:14:37;11.20;62.80
19060;DHT22;9663;48.996;8.334;2023-12-20T14:17:03;11.20;62.80
19060;DHT22;9663;48.996;8.334;2023-12-20T14:19:29;11.10;62.80
19060;DHT22;9663;48.996;8.334;2023-12-20T14:21:55;11.10;62.80
19060;DHT22;9663;48.996;8.334;2023-12-20T14:24:21;11.10;62.90
19060;DHT22;9663;48.996;8.334;2023-12-20T14:26:46;11.10;63.00
19060;DHT22;9663;48.996;8.334;2023-12-20T14:29:12;11.20;63.90
19060;DHT22;9663;48.996;8.334;2023-12-20T14:31:38;11.20;63.50
19060;DHT22;9663;48.996;8.334;2023-12-20T14:34:07;11.30;63.30
19060;DHT22;9663;48.996;8.334;2023-12-20T14:36:34;11.30;63.00
19060;DHT22;9663;48.996;8.334;2023-12-20T14:39:00;11.30;62.90
19060;DHT22;9663;48.996;8.334;2023-12-20T14:41:28;11.30;62.80
19060;DHT22;9663;48.996;8.334;2023-12-20T14:43:53;11.20;62.70
19060;DHT22;9663;48.996;8.334;2023-12-20T14:46:19;11.20;62.80
19060;DHT22;9663;48.996;8.334;2023-12-20T14:48:45;11.30;62.80
19060;DHT22;9663;48.996;8.334;2023-12-20T14:51:11;11.20;62.70
19060;DHT22;9663;48.996;8.334;2023-12-20T14:53:38;11.20;62.80
19060;DHT22;9663;48.996;8.334;2023-12-20T14:56:05;11.20;62.80
19060;DHT22;9663;48.996;8.334;2023-12-20T14:58:31;11.20;62.90
19060;DHT22;9663;48.996;8.334;2023-12-20T15:00:57;11.20;62.90
19060;DHT22;9663;48.996;8.334;2023-12-20T15:03:24;11.20;62.90
19060;DHT22;9663;48.996;8.334;2023-12-20T15:05:49;11.20;62.90
19060;DHT22;9663;48.996;8.334;2023-12-20T15:08:15;11.20;62.90
19060;DHT22;9663;48.996;8.334;2023-12-20T15:10:41;11.10;62.90
19060;DHT22;9663;48.996;8.334;2023-12-20T15:13:07;11.10;62.80
19060;DHT22;9663;48.996;8.334;2023-12-20T15:15:33;11.10;62.80
19060;DHT22;9663;48.996;8.334;2023-12-20T15:17:59;11.00;62.80
19060;DHT22;9663;48.996;8.334;2023-12-20T15:20:25;11.00;62.90
19060;DHT22;9663;48.996;8.334;2023-12-20T15:22:51;10.90;62.90
19060;DHT22;9663;48.996;8.334;2023-12-20T15:25:18;10.90;62.90
19060;DHT22;9663;48.996;8.334;2023-12-20T15:27:48;10.90;63.50
19060;DHT22;9663;48.996;8.334;2023-12-20T15:30:21;10.90;63.40
19060;DHT22;9663;48.996;8.334;2023-12-20T15:32:48;10.90;63.20
19060;DHT22;9663;48.996;8.334;2023-12-20T15:35:14;10.80;63.00
19060;DHT22;9663;48.996;8.334;2023-12-20T15:37:39;10.80;63.50
19060;DHT22;9663;48.996;8.334;2023-12-20T15:40:08;10.80;63.00
19060;DHT22;9663;48.996;8.334;2023-12-20T15:42:38;10.80;63.00
19060;DHT22;9663;48.996;8.334;2023-12-20T15:45:05;10.70;62.90
19060;DHT22;9663;48.996;8.334;2023-12-20T15:47:33;10.70;62.90
19060;DHT22;9663;48.996;8.334;2023-12-20T15:50:01;10.60;62.90
19060;DHT22;9663;48.996;8.334;2023-12-20T15:52:27;10.60;62.90
19060;DHT22;9663;48.996;8.334;2023-12-20T15:54:53;10.60;63.00
19060;DHT22;9663;48.996;8.334;2023-12-20T15:57:19;10.60;63.10
19060;DHT22;9663;48.996;8.334;2023-12-20T15:59:44;10.50;63.20